createdAt,value
2023-04-07T18:32:48.865Z,63.3064
2023-04-07T18:33:50.405Z,62.5486
2023-04-07T18:34:51.782Z,61.3363
2023-04-07T18:35:53.330Z,60.4142
2023-04-07T18:36:55.415Z,59.9947
2023-04-07T18:37:56.340Z,58.8894
2023-04-07T18:38:57.854Z,58.8435
2023-04-07T18:39:59.511Z,59.4204
2023-04-07T18:41:00.940Z,59.8338
2023-04-07T18:42:02.453Z,57.0407
2023-04-07T18:43:04.279Z,54.6718
2023-04-07T18:44:05.439Z,54.0268
2023-04-07T18:46:39.229Z,53.2816
2023-04-07T18:47:40.418Z,53.0676
2023-04-07T18:48:41.708Z,52.8926
2023-04-07T18:49:43.017Z,53.3209
2023-04-07T18:50:44.112Z,54.0302
2023-04-07T18:51:45.333Z,54.5272
2023-04-07T18:52:47.423Z,55.0905
2023-04-07T18:53:48.047Z,54.3435
2023-04-07T18:54:49.210Z,52.3719
2023-04-07T18:57:21.583Z,52.5826
2023-04-07T18:58:20.273Z,51.9553
2023-04-07T18:59:21.715Z,51.7891
2023-04-07T19:00:23.192Z,51.5706
2023-04-07T19:01:24.870Z,52.2125
2023-04-07T19:02:26.388Z,53.1111
2023-04-07T19:03:28.144Z,51.6798
2023-04-07T19:04:29.280Z,51.3656
2023-04-07T19:05:31.009Z,50.8965
2023-04-07T19:06:32.687Z,51.1524
2023-04-07T19:07:33.866Z,51.0238
2023-04-07T19:08:35.787Z,54.7773
2023-04-07T19:09:36.930Z,53.1224
2023-04-07T19:10:38.394Z,52.1045
2023-04-07T19:11:39.895Z,52.5423
2023-04-07T19:12:41.442Z,52.7702
2023-04-07T19:13:42.976Z,50.6610
2023-04-07T19:14:45.466Z,50.6180
2023-04-07T19:15:46.007Z,50.5966
2023-04-07T19:16:47.661Z,51.0742
2023-04-07T19:17:50.910Z,51.2801
2023-04-07T19:20:56.478Z,51.7674
2023-04-07T20:09:16.136Z,46.3614
